Terminal Aerodrome Forecast
Issued by NWS Grand Junction, CO

Home | Current Version | Previous Version | Text Only | Print | Product List | Glossary On
Versions: 1 2 3 4 5 6 7 8 9 10 11 12
000
FTUS45 KGJT 291732
TAFGJT
TAF
KGJT 291732Z 2918/3018 31006KT P6SM VCSH SCT040 OVC080
      TEMPO 2918/2920 6SM -SHRA BKN050 OVC070
     FM292000 32006KT P6SM VCTS SCT050CB OVC070
     FM300100 09006KT P6SM VCTS BKN080CB
     FM300300 13007KT P6SM VCTS BKN070CB
     FM300600 12007KT P6SM VCSH BKN050=

USA.gov is the U.S. government's official web portal to all federal, state and local government web resources and services.